Abraham, Utah
Current Conditions -  °F | °C
As of 6:55 PM on Saturday 22 Nov 2014 (Local Time) from KDTA Reporting Station
Overcast Overcast  
Wind Chill: 27°   Ceiling: 2600
Heat Index: 39°   Visibility: 3mi
Dew Point: 36°   Wind: 29mph
Humidity: 91%   Direction: 340°NNW
Pressure: 29.89"   Gusts: 37mph
Location:  39.4463°N, 112.85°W
Report Text: KDTA 230155Z AUTO 34025G32KT 3SM SCT017 BKN026 OVC042 04/02 A2989 RMK AO1 T00380024
Loading
Personal Weather Stations






























Interactive Weather Map New forecast layout! Learn more

10-Day Weather Forecast

Advertisements
Track Severe Weather on mobile